Airport View

Enter AWOS ICAO identifier for current METAR.

ex. KFNL

KORD 112051Z 30007KT 10SM FEW030 M04/M14 A3046 RMK AO2 SLP327 T10441139 53014

11 Dec 2019 21:54

Phone: 773-462-0118

Other Area AWOS: KPWK - KMDW - KDPA - KLOT

TAF AMD KORD 112128Z 1121/1224 28006KT P6SM FEW030 FM112300 33004KT P6SM FEW250 FM120200 12003KT P6SM FEW100 BKN250 FM120900 15010KT P6SM FEW100 BKN250 FM121600 19017G28KT P6SM SCT070 BKN250 WS020/21045KT